Time;durP1;ratioP1;P1;durP2;ratioP2;P2;SDS_P1;SDS_P2;PMS_P1;PMS_P2;Temp;Humidity;BMP_temperature;BMP_pressure;BME280_temperature;BME280_humidity;BME280_pressure;Samples;Min_cycle;Max_cycle;Signal;HPM_P1;HPM_P2
2022/12/16 00:00:27;;;;;;;78.70;38.90;;;;;;;-2.11;90.40;98169.02;86467;1303;22497;-79
2022/12/16 00:02:50;;;;;;;84.60;43.50;;;;;;;-2.10;90.39;98160.08;86714;1315;25280;-79
2022/12/16 00:04:52;;;;;;;88.00;44.10;;;;;;;-2.10;90.48;98156.46;86536;1307;98870;-78
2022/12/16 00:06:54;;;;;;;79.50;39.60;;;;;;;-2.10;90.38;98153.35;86665;1314;22480;-79
2022/12/16 00:08:58;;;;;;;83.50;42.80;;;;;;;-2.12;90.35;98149.60;87042;1300;24378;-79
2022/12/16 00:11:00;;;;;;;75.40;39.00;;;;;;;-2.13;90.27;98152.86;86678;1297;99220;-79
2022/12/16 00:13:02;;;;;;;73.70;39.80;;;;;;;-2.13;90.46;98146.67;86601;1317;23822;-79
2022/12/16 00:15:05;;;;;;;90.40;46.10;;;;;;;-2.13;90.48;98145.13;86634;1309;22516;-79
2022/12/16 00:17:07;;;;;;;89.60;45.10;;;;;;;-2.14;90.39;98141.86;86608;1313;98294;-79
2022/12/16 00:19:08;;;;;;;80.00;42.80;;;;;;;-2.15;90.35;98144.11;86597;1312;22646;-80
2022/12/16 00:21:11;;;;;;;67.00;35.60;;;;;;;-2.14;90.39;98147.38;86734;1298;22502;-79
2022/12/16 00:23:13;;;;;;;76.00;41.10;;;;;;;-2.14;90.29;98150.31;86634;1309;98128;-79
2022/12/16 00:25:15;;;;;;;80.10;38.80;;;;;;;-2.13;90.35;98159.07;86606;1317;22480;-79
2022/12/16 00:27:16;;;;;;;77.90;41.50;;;;;;;-2.13;90.44;98170.25;86660;1309;22492;-79
2022/12/16 00:29:18;;;;;;;80.00;40.80;;;;;;;-2.13;90.43;98177.99;86940;1314;98054;-79
2022/12/16 00:31:20;;;;;;;75.80;40.60;;;;;;;-2.12;90.56;98174.89;86767;1314;22587;-80
2022/12/16 00:33:26;;;;;;;90.90;47.90;;;;;;;-2.12;90.42;98156.66;86781;1313;24172;-79
2022/12/16 00:35:29;;;;;;;88.30;43.90;;;;;;;-2.11;90.54;98145.11;86587;1312;98230;-79
2022/12/16 00:37:31;;;;;;;82.20;44.60;;;;;;;-2.11;90.35;98136.69;86685;1313;22514;-79
2022/12/16 00:39:33;;;;;;;80.20;45.70;;;;;;;-2.13;90.41;98129.13;86701;1313;22543;-80
2022/12/16 00:41:35;;;;;;;91.60;47.40;;;;;;;-2.13;90.44;98133.94;86659;1313;98369;-80
2022/12/16 00:43:38;;;;;;;103.90;54.10;;;;;;;-2.17;90.39;98134.50;86724;1313;22647;-79
2022/12/16 00:45:40;;;;;;;92.60;48.40;;;;;;;-2.13;90.40;98142.89;86668;1306;22603;-79
2022/12/16 00:47:41;;;;;;;94.50;49.30;;;;;;;-2.12;90.36;98139.10;86543;1321;98869;-80
2022/12/16 00:49:43;;;;;;;69.10;36.10;;;;;;;-2.12;90.55;98137.72;86671;1316;22477;-79
2022/12/16 00:51:45;;;;;;;96.70;50.60;;;;;;;-2.12;90.41;98129.80;86657;1307;23918;-79
2022/12/16 00:53:47;;;;;;;84.80;45.50;;;;;;;-2.12;90.40;98135.15;86701;1314;98217;-79
2022/12/16 00:55:48;;;;;;;90.00;47.50;;;;;;;-2.13;90.42;98135.32;86715;1311;22542;-78
2022/12/16 00:57:50;;;;;;;97.10;52.90;;;;;;;-2.14;90.46;98126.73;86679;1314;22481;-80
2022/12/16 00:59:52;;;;;;;99.50;52.10;;;;;;;-2.14;90.50;98126.23;86883;1298;98792;-79
2022/12/16 01:01:56;;;;;;;74.50;39.20;;;;;;;-2.16;90.57;98130.20;86722;1312;22804;-79
2022/12/16 01:03:58;;;;;;;72.10;38.20;;;;;;;-2.15;90.49;98138.09;86798;1312;22508;-79
2022/12/16 01:06:00;;;;;;;85.40;44.30;;;;;;;-2.14;90.46;98148.41;86615;1314;99446;-80
2022/12/16 01:08:01;;;;;;;109.40;56.20;;;;;;;-2.13;90.52;98142.20;86553;1315;22477;-79
2022/12/16 01:10:05;;;;;;;102.70;53.80;;;;;;;-2.11;90.44;98142.70;86570;1313;22630;-79
2022/12/16 01:12:07;;;;;;;113.60;56.90;;;;;;;-2.11;90.56;98143.22;86678;1312;98280;-79
2022/12/16 01:14:08;;;;;;;102.90;52.00;;;;;;;-2.09;90.56;98133.39;86711;1310;22487;-79
2022/12/16 01:16:10;;;;;;;72.80;40.20;;;;;;;-2.09;90.56;98120.98;86594;1316;25229;-80
2022/12/16 01:18:12;;;;;;;103.40;50.70;;;;;;;-2.08;90.52;98113.59;86895;1314;98098;-80
2022/12/16 01:20:14;;;;;;;110.40;55.10;;;;;;;-2.09;90.52;98112.55;87075;1318;22528;-78
2022/12/16 01:22:16;;;;;;;90.20;50.40;;;;;;;-2.10;90.61;98110.66;86648;1314;22487;-79
2022/12/16 01:24:18;;;;;;;78.90;45.20;;;;;;;-2.09;90.56;98108.77;86551;1308;99153;-80
2022/12/16 01:26:20;;;;;;;102.40;49.50;;;;;;;-2.10;90.44;98096.91;87120;1316;22471;-80
2022/12/16 01:28:24;;;;;;;76.20;40.20;;;;;;;-2.10;90.55;98088.31;86517;1306;22535;-79
2022/12/16 01:30:25;;;;;;;81.50;43.80;;;;;;;-2.12;90.50;98078.52;86861;1313;22563;-80
2022/12/16 01:32:27;;;;;;;95.20;50.60;;;;;;;-2.14;90.44;98075.95;86668;1312;24361;-79
2022/12/16 01:34:29;;;;;;;94.30;51.70;;;;;;;-2.15;90.46;98077.17;86640;1296;98277;-79
2022/12/16 01:36:31;;;;;;;81.20;42.00;;;;;;;-2.16;90.60;98078.20;86936;1303;22475;-80
2022/12/16 01:38:33;;;;;;;54.90;29.90;;;;;;;-2.16;90.51;98078.22;87244;1316;25279;-80
2022/12/16 01:40:35;;;;;;;73.50;36.70;;;;;;;-2.16;90.54;98079.25;86660;1314;98273;-80
2022/12/16 01:42:37;;;;;;;68.80;39.10;;;;;;;-2.15;90.56;98073.38;86768;1311;22485;-79
2022/12/16 01:44:44;;;;;;;60.70;33.20;;;;;;;-2.14;90.46;98065.98;86817;1318;22591;-79
2022/12/16 01:46:52;;;;;;;79.70;40.80;;;;;;;-2.14;90.55;98063.06;86765;1313;99019;-80
2022/12/16 01:49:01;;;;;;;83.70;42.90;;;;;;;-2.15;90.52;98061.34;87202;1312;22990;-79
2022/12/16 01:51:09;;;;;;;90.50;49.40;;;;;;;-2.16;90.53;98063.77;86782;1315;25371;-80
2022/12/16 01:53:11;;;;;;;89.80;44.50;;;;;;;-2.16;90.51;98054.64;86574;1307;98049;-80
2022/12/16 01:55:33;;;;;;;81.20;44.90;;;;;;;-2.16;90.42;98056.54;86700;1313;24202;-80
2022/12/16 01:57:47;;;;;;;;;;;;;;;-2.16;90.69;98060.33;86741;1313;22508;-79
2022/12/16 01:59:52;;;;;;;88.90;45.70;;;;;;;-2.18;90.44;98055.36;86622;1319;84713;-81
2022/12/16 02:01:53;;;;;;;66.30;38.00;;;;;;;-2.18;90.68;98051.41;87300;1310;23836;-80
2022/12/16 02:04:00;;;;;;;63.70;34.80;;;;;;;-2.19;90.42;98043.48;87271;1303;22486;-80
2022/12/16 02:06:05;;;;;;;89.60;46.10;;;;;;;-2.20;90.59;98039.72;88004;1310;98242;-80
2022/12/16 02:08:12;;;;;;;95.60;49.70;;;;;;;-2.20;90.42;98040.58;87248;1314;23818;-80
2022/12/16 02:10:14;;;;;;;96.10;47.10;;;;;;;-2.22;90.58;98030.98;87373;1295;25457;-79
2022/12/16 02:12:56;;;;;;;79.90;42.20;;;;;;;-2.22;90.57;98018.06;87268;1313;98226;-79
2022/12/16 02:15:37;;;;;;;77.00;38.60;;;;;;;-2.22;90.61;98007.23;86872;1314;233140;-79
2022/12/16 02:17:57;;;;;;;70.00;35.80;;;;;;;-2.26;90.45;98005.73;87212;1311;98096;-80
2022/12/16 02:20:13;;;;;;;76.90;40.70;;;;;;;-2.23;90.44;98022.02;87143;1313;22522;-80
2022/12/16 02:22:26;;;;;;;83.20;39.80;;;;;;;-2.23;90.52;98028.05;86998;1313;22552;-80
2022/12/16 02:25:05;;;;;;;77.10;43.20;;;;;;;-2.23;90.57;98026.67;86904;1310;22443;-80
2022/12/16 02:27:38;;;;;;;64.20;32.80;;;;;;;-2.23;90.56;98020.31;87139;1309;22515;-80
2022/12/16 02:30:22;;;;;;;73.10;38.90;;;;;;;-2.23;90.60;98017.90;86915;1310;98015;-80
2022/12/16 02:32:47;;;;;;;85.10;45.30;;;;;;;-2.23;90.59;98020.30;87204;1310;22521;-80
2022/12/16 02:35:02;;;;;;;80.90;42.10;;;;;;;-2.23;90.56;98020.81;86798;1298;98197;-80
2022/12/16 02:37:40;;;;;;;76.20;42.00;;;;;;;-2.21;90.64;98020.31;87009;1298;23662;-80
2022/12/16 02:39:50;;;;;;;67.20;38.30;;;;;;;-2.21;90.59;98021.67;86687;1301;22514;-80
2022/12/16 02:42:18;;;;;;;64.40;32.90;;;;;;;-2.20;90.63;98018.21;86523;1300;98090;-80
2022/12/16 02:44:31;;;;;;;66.80;35.60;;;;;;;-2.19;90.57;98011.48;86686;1300;22518;-78
2022/12/16 02:46:39;;;;;;;72.50;35.10;;;;;;;-2.17;90.67;98004.75;86494;1317;98844;-80
2022/12/16 02:48:41;;;;;;;75.10;42.80;;;;;;;-2.17;90.62;97992.89;86312;1325;25739;-79
2022/12/16 02:50:48;;;;;;;87.20;46.10;;;;;;;-2.18;90.70;97982.73;86443;1318;22544;-80
2022/12/16 02:52:53;;;;;;;84.50;43.60;;;;;;;-2.20;90.64;97974.15;86322;1320;98107;-79
2022/12/16 02:54:58;;;;;;;76.30;40.60;;;;;;;-2.18;90.67;97970.01;86685;1303;22601;-81
2022/12/16 02:57:18;;;;;;;67.90;36.30;;;;;;;-2.19;90.64;97966.92;86714;1318;22525;-80
2022/12/16 02:59:23;;;;;;;78.40;42.20;;;;;;;-2.20;90.46;97959.70;86545;1315;98075;-79
2022/12/16 03:01:35;;;;;;;85.30;43.60;;;;;;;-2.21;90.69;97956.62;86735;1314;23618;-80
2022/12/16 03:04:06;;;;;;;70.40;37.70;;;;;;;-2.20;90.60;97955.40;86536;1296;24284;-79
2022/12/16 03:06:10;;;;;;;62.60;36.30;;;;;;;-2.19;90.69;97957.12;86581;1318;98091;-79
2022/12/16 03:08:26;;;;;;;67.20;38.00;;;;;;;-2.20;90.67;97949.89;86271;1318;22524;-79
2022/12/16 03:10:34;;;;;;;73.00;38.70;;;;;;;-2.20;90.60;97951.63;86414;1324;24439;-80
2022/12/16 03:12:39;;;;;;;73.30;35.40;;;;;;;-2.20;90.59;97949.90;86393;1318;22487;-78
2022/12/16 03:14:46;;;;;;;61.90;31.30;;;;;;;-2.20;90.72;97949.04;86303;1311;22466;-80
2022/12/16 03:16:49;;;;;;;77.80;40.30;;;;;;;-2.20;90.51;97945.77;86438;1313;98426;-78
2022/12/16 03:18:58;;;;;;;44.30;26.70;;;;;;;-2.21;90.58;97953.02;86547;1321;26457;-79
2022/12/16 03:21:06;;;;;;;53.80;31.10;;;;;;;-2.20;90.70;97953.86;86873;1290;24301;-80
2022/12/16 03:23:11;;;;;;;78.20;42.30;;;;;;;-2.19;90.60;97955.57;86938;1310;98131;-80
2022/12/16 03:25:14;;;;;;;66.80;37.40;;;;;;;-2.19;90.77;97952.98;86981;1311;22774;-79
2022/12/16 03:27:25;;;;;;;71.40;40.60;;;;;;;-2.18;90.76;97951.59;86618;1315;22651;-80
2022/12/16 03:29:48;;;;;;;45.70;27.70;;;;;;;-2.18;90.74;97950.04;86961;1313;98447;-81
2022/12/16 03:31:57;;;;;;;74.50;39.90;;;;;;;-2.17;90.75;97951.39;87061;1304;22528;-79
2022/12/16 03:34:09;;;;;;;78.80;42.70;;;;;;;-2.18;90.86;97944.70;86823;1312;22480;-80
2022/12/16 03:36:19;;;;;;;66.90;35.50;;;;;;;-2.16;90.78;97942.09;86506;1314;98164;-80
2022/12/16 03:38:23;;;;;;;74.50;39.30;;;;;;;-2.16;90.70;97932.80;86643;1312;23627;-80
2022/12/16 03:40:27;;;;;;;69.70;39.60;;;;;;;-2.16;90.78;97925.92;86650;1306;23071;-80
2022/12/16 03:42:29;;;;;;;65.20;37.50;;;;;;;-2.16;90.71;97918.69;86967;1313;98438;-80
2022/12/16 03:44:34;;;;;;;59.90;34.70;;;;;;;-2.15;90.71;97908.35;86647;1313;24302;-80
2022/12/16 03:46:36;;;;;;;67.80;35.60;;;;;;;-2.15;90.74;97899.92;86554;1314;98647;-80
2022/12/16 03:48:49;;;;;;;51.70;31.10;;;;;;;-2.14;90.77;97905.95;86512;1319;22564;-80
2022/12/16 03:50:51;;;;;;;52.40;28.00;;;;;;;-2.14;90.73;97898.55;86949;1312;22484;-79
2022/12/16 03:52:53;;;;;;;51.60;30.80;;;;;;;-2.18;90.74;97889.46;86581;1313;98285;-81
2022/12/16 03:54:54;;;;;;;59.00;33.00;;;;;;;-2.14;90.83;97894.05;87116;1313;25265;-80
2022/12/16 03:56:58;;;;;;;57.40;34.10;;;;;;;-2.14;90.84;97898.36;87074;1305;22599;-79
2022/12/16 03:59:00;;;;;;;49.00;28.90;;;;;;;-2.14;90.74;97891.81;86980;1315;98814;-81
2022/12/16 04:01:02;;;;;;;58.40;33.00;;;;;;;-2.13;90.77;97879.58;87557;1312;22602;-80
2022/12/16 04:03:04;;;;;;;56.90;31.90;;;;;;;-2.13;90.84;97869.76;87426;1312;22490;-80
2022/12/16 04:05:07;;;;;;;48.30;29.10;;;;;;;-2.12;90.81;97861.67;86917;1306;98056;-81
2022/12/16 04:07:23;;;;;;;51.60;30.20;;;;;;;-2.15;90.86;97850.18;87450;1312;22539;-80
2022/12/16 04:09:25;;;;;;;48.80;30.40;;;;;;;-2.15;90.84;97845.55;86815;1314;22515;-80
2022/12/16 04:25:38;;;;;;;48.70;28.00;;;;;;;-2.20;90.67;97815.52;87005;1312;24412;-80
2022/12/16 04:27:45;;;;;;;50.80;28.60;;;;;;;-2.20;90.74;97819.48;86724;1306;22494;-80
2022/12/16 04:32:07;;;;;;;48.30;28.70;;;;;;;-2.23;90.54;97825.70;86791;1312;25366;-80
2022/12/16 04:34:24;;;;;;;47.30;27.30;;;;;;;-2.23;90.56;97825.86;86651;1313;25629;-79
